Time;durP1;ratioP1;P1;durP2;ratioP2;P2;SDS_P1;SDS_P2;PMS_P1;PMS_P2;Temp;Humidity;BMP_temperature;BMP_pressure;BME280_temperature;BME280_humidity;BME280_pressure;Samples;Min_cycle;Max_cycle;Signal;HPM_P1;HPM_P2
2023/09/02 00:01:50;;;;;;;1.90;1.70;;;25.10;69.40;;;;;;5110726;28;20461;-69
2023/09/02 00:04:19;;;;;;;1.97;1.87;;;25.10;69.40;;;;;;5111549;28;20472;-69
2023/09/02 00:06:47;;;;;;;5.00;1.90;;;25.10;69.40;;;;;;5094812;28;20457;-69
2023/09/02 00:09:15;;;;;;;1.40;1.30;;;25.10;69.40;;;;;;5108135;28;20495;-69
2023/09/02 00:11:43;;;;;;;1.80;1.70;;;25.10;69.40;;;;;;5110060;28;20502;-69
2023/09/02 00:14:12;;;;;;;2.20;2.00;;;25.10;69.40;;;;;;5094490;28;20944;-69
2023/09/02 00:16:40;;;;;;;2.63;2.13;;;25.10;69.40;;;;;;5093197;28;20962;-69
2023/09/02 00:19:10;;;;;;;2.33;1.70;;;25.00;69.50;;;;;;5111220;28;20464;-69
2023/09/02 00:21:38;;;;;;;2.40;1.57;;;25.00;69.40;;;;;;5101653;28;20457;-69
2023/09/02 00:24:07;;;;;;;2.50;1.80;;;25.00;69.50;;;;;;5112528;28;20474;-70
2023/09/02 00:26:35;;;;;;;2.40;2.00;;;25.00;69.50;;;;;;5104516;28;20551;-69
2023/09/02 00:29:03;;;;;;;2.13;1.93;;;25.00;69.50;;;;;;5110638;28;20455;-69
2023/09/02 00:31:33;;;;;;;2.17;1.97;;;25.00;69.40;;;;;;5094722;28;20786;-69
2023/09/02 00:34:02;;;;;;;1.67;1.47;;;25.00;69.50;;;;;;5094306;28;20851;-69
2023/09/02 00:36:32;;;;;;;2.10;1.80;;;25.00;69.50;;;;;;5109034;28;20492;-69
2023/09/02 00:39:00;;;;;;;1.60;1.50;;;25.00;69.50;;;;;;5107231;28;20447;-69
2023/09/02 00:41:33;;;;;;;2.10;1.90;;;25.00;69.50;;;;;;5110329;28;20493;-69
2023/09/02 00:44:02;;;;;;;2.20;1.67;;;25.00;69.50;;;;;;5092089;28;21045;-70
2023/09/02 00:46:31;;;;;;;2.07;1.83;;;25.00;69.50;;;;;;5109441;28;20468;-69
2023/09/02 00:48:59;;;;;;;1.97;1.77;;;25.00;69.50;;;;;;5090240;28;20451;-69
2023/09/02 00:51:28;;;;;;;2.10;1.90;;;25.00;69.50;;;;;;5077817;28;20449;-70
2023/09/02 00:53:57;;;;;;;2.57;2.00;;;25.00;69.50;;;;;;5108735;28;20509;-69
2023/09/02 00:56:26;;;;;;;1.87;1.77;;;25.00;69.50;;;;;;5108274;28;20481;-69
2023/09/02 00:58:59;;;;;;;9.10;1.80;;;25.00;69.60;;;;;;5111035;28;20470;-70
2023/09/02 01:01:29;;;;;;;3.20;1.97;;;25.00;69.60;;;;;;5109139;28;20514;-69
2023/09/02 01:03:58;;;;;;;1.60;1.50;;;25.00;69.60;;;;;;5110629;28;20499;-69
2023/09/02 01:06:26;;;;;;;2.30;1.73;;;25.00;69.60;;;;;;5112158;28;20442;-69
2023/09/02 01:08:55;;;;;;;2.50;2.20;;;25.00;69.60;;;;;;5110299;28;20882;-69
2023/09/02 01:11:24;;;;;;;1.67;1.57;;;24.90;69.60;;;;;;5111259;28;20446;-69
2023/09/02 01:13:52;;;;;;;1.73;1.43;;;24.90;69.60;;;;;;5109945;28;20431;-69
2023/09/02 01:16:21;;;;;;;2.10;1.90;;;24.90;69.60;;;;;;5092490;28;20930;-69
2023/09/02 01:18:49;;;;;;;1.53;1.43;;;24.90;69.60;;;;;;5096506;28;20456;-70
2023/09/02 01:21:40;;;;;;;1.80;1.70;;;24.90;69.60;;;;;;5080361;28;20471;-69
2023/09/02 01:24:27;;;;;;;2.60;2.10;;;24.90;69.60;;;;;;5097249;28;20457;-70
2023/09/02 01:27:14;;;;;;;2.80;2.27;;;24.90;69.60;;;;;;5105793;28;20456;-69
2023/09/02 01:29:49;;;;;;;2.57;2.37;;;24.90;69.70;;;;;;5111178;28;20430;-69
2023/09/02 01:32:19;;;;;;;1.73;1.63;;;24.90;69.60;;;;;;5105507;28;20463;-69
2023/09/02 01:34:48;;;;;;;1.80;1.70;;;24.90;69.60;;;;;;5093558;28;20428;-70
2023/09/02 01:37:18;;;;;;;2.10;1.90;;;24.90;69.70;;;;;;5110831;28;20476;-70
2023/09/02 01:39:50;;;;;;;1.90;1.80;;;24.90;69.70;;;;;;5109030;28;20451;-70
2023/09/02 01:42:20;;;;;;;2.03;1.83;;;24.90;69.70;;;;;;5103071;28;20916;-70
2023/09/02 01:44:49;;;;;;;2.20;2.10;;;24.90;69.70;;;;;;5106618;28;20455;-70
2023/09/02 01:47:18;;;;;;;2.00;1.90;;;24.80;69.70;;;;;;5109482;28;20462;-69
2023/09/02 01:49:47;;;;;;;2.13;1.80;;;24.80;69.70;;;;;;5115405;28;20413;-69
2023/09/02 01:52:16;;;;;;;2.30;1.63;;;24.80;69.70;;;;;;5110931;28;20450;-69
2023/09/02 01:54:45;;;;;;;2.13;1.93;;;24.80;69.70;;;;;;5096904;28;20817;-69
2023/09/02 01:57:14;;;;;;;2.53;2.10;;;24.80;69.70;;;;;;5114971;28;20950;-69
2023/09/02 01:59:43;;;;;;;1.97;1.80;;;24.80;69.60;;;;;;5088296;28;20574;-69
2023/09/02 02:02:14;;;;;;;2.40;2.20;;;24.80;69.60;;;;;;5079148;28;20471;-69
2023/09/02 02:04:47;;;;;;;2.50;1.93;;;24.80;69.60;;;;;;5089011;28;20454;-69
2023/09/02 02:07:16;;;;;;;2.00;1.90;;;24.80;69.60;;;;;;5097329;28;20501;-69
2023/09/02 02:09:48;;;;;;;1.83;1.70;;;24.80;69.60;;;;;;5097005;28;20518;-69
2023/09/02 02:12:17;;;;;;;2.00;1.80;;;24.80;69.60;;;;;;5110349;28;20536;-69
2023/09/02 02:14:48;;;;;;;2.20;2.00;;;24.80;69.60;;;;;;5115068;28;20422;-69
2023/09/02 02:17:17;;;;;;;2.47;2.27;;;24.80;69.70;;;;;;5104740;28;20449;-69
2023/09/02 02:19:45;;;;;;;2.30;2.10;;;24.80;69.60;;;;;;5077461;28;20470;-70
2023/09/02 02:22:13;;;;;;;2.13;1.93;;;24.80;69.60;;;;;;5082365;28;20449;-69
2023/09/02 02:24:41;;;;;;;1.40;1.30;;;24.80;69.60;;;;;;5115267;28;20413;-69
2023/09/02 02:27:10;;;;;;;1.80;1.63;;;24.80;69.60;;;;;;5115490;28;20475;-69
2023/09/02 02:29:39;;;;;;;2.10;1.90;;;24.80;69.60;;;;;;5095686;28;21222;-69
2023/09/02 02:32:08;;;;;;;1.63;1.53;;;24.80;69.60;;;;;;5107218;28;20486;-69
2023/09/02 02:34:37;;;;;;;2.00;1.90;;;24.80;69.60;;;;;;5114875;28;20447;-69
2023/09/02 02:37:05;;;;;;;2.60;1.73;;;24.80;69.60;;;;;;5096087;28;20482;-70
2023/09/02 02:39:34;;;;;;;2.40;1.90;;;24.70;69.60;;;;;;5111260;28;20457;-69
2023/09/02 02:42:02;;;;;;;2.30;2.00;;;24.70;69.60;;;;;;5110620;28;20438;-69
2023/09/02 02:44:30;;;;;;;1.67;1.57;;;24.70;69.60;;;;;;5079219;28;20454;-70
2023/09/02 02:46:58;;;;;;;2.30;1.77;;;24.70;69.60;;;;;;5097711;28;20454;-70
2023/09/02 02:49:28;;;;;;;1.70;1.60;;;24.70;69.60;;;;;;5076221;28;20452;-69
2023/09/02 02:51:56;;;;;;;2.37;2.10;;;24.70;69.60;;;;;;5096220;28;20527;-70
2023/09/02 02:54:26;;;;;;;1.80;1.67;;;24.70;69.60;;;;;;5094241;28;20807;-69
2023/09/02 02:56:55;;;;;;;1.70;1.60;;;24.70;69.60;;;;;;5096555;28;20462;-69
2023/09/02 02:59:23;;;;;;;1.90;1.70;;;24.70;69.60;;;;;;5111237;28;21025;-70
2023/09/02 03:01:52;;;;;;;2.50;1.90;;;24.70;69.60;;;;;;5096027;28;20453;-69
2023/09/02 03:04:20;;;;;;;1.77;1.67;;;24.70;69.60;;;;;;5096159;28;20968;-69
2023/09/02 03:06:50;;;;;;;1.80;1.70;;;24.70;69.60;;;;;;5114325;28;20794;-69
2023/09/02 03:09:18;;;;;;;2.00;1.90;;;24.70;69.60;;;;;;5108467;28;20452;-70
2023/09/02 03:11:47;;;;;;;1.83;1.73;;;24.70;69.60;;;;;;5085077;28;20465;-69
2023/09/02 03:14:15;;;;;;;1.70;1.60;;;24.70;69.50;;;;;;5094352;28;20495;-69
2023/09/02 03:16:44;;;;;;;1.93;1.77;;;24.70;69.50;;;;;;5099705;28;20454;-69
2023/09/02 03:19:13;;;;;;;2.67;1.77;;;24.70;69.50;;;;;;5093275;28;20957;-69
2023/09/02 03:21:41;;;;;;;1.47;1.37;;;24.70;69.50;;;;;;5095110;28;20449;-69
2023/09/02 03:24:11;;;;;;;1.63;1.53;;;24.60;69.50;;;;;;5095312;28;20457;-69
2023/09/02 03:26:39;;;;;;;1.67;1.57;;;24.70;69.50;;;;;;5105782;28;20458;-69
2023/09/02 03:29:07;;;;;;;2.07;1.93;;;24.60;69.50;;;;;;5092370;28;20438;-69
2023/09/02 03:31:37;;;;;;;2.17;2.07;;;24.60;69.50;;;;;;5075464;28;20953;-69
2023/09/02 03:34:06;;;;;;;1.83;1.73;;;24.60;69.50;;;;;;5075250;28;20441;-69
2023/09/02 03:36:34;;;;;;;3.83;1.63;;;24.60;69.50;;;;;;5092871;28;20832;-69
2023/09/02 03:39:02;;;;;;;1.40;1.30;;;24.60;69.40;;;;;;5093736;28;20473;-69
2023/09/02 03:41:32;;;;;;;2.10;1.90;;;24.60;69.50;;;;;;5074996;28;20620;-69
2023/09/02 03:44:00;;;;;;;1.73;1.63;;;24.60;69.40;;;;;;5089977;28;20465;-69
2023/09/02 03:46:29;;;;;;;2.10;1.80;;;24.60;69.40;;;;;;5075123;28;20800;-69
2023/09/02 03:49:00;;;;;;;1.87;1.77;;;24.60;69.40;;;;;;5102637;28;20928;-70
2023/09/02 03:51:29;;;;;;;1.90;1.77;;;24.60;69.40;;;;;;5086703;28;20452;-70
2023/09/02 03:54:00;;;;;;;3.03;2.23;;;24.60;69.40;;;;;;5075548;28;20533;-70
2023/09/02 03:56:28;;;;;;;1.97;1.80;;;24.60;69.40;;;;;;5074758;28;20459;-70
2023/09/02 03:58:58;;;;;;;1.60;1.47;;;24.60;69.40;;;;;;5100032;28;20519;-69
2023/09/02 04:01:26;;;;;;;1.50;1.40;;;24.60;69.40;;;;;;5094656;28;20467;-70
2023/09/02 04:03:54;;;;;;;1.50;1.40;;;24.60;69.40;;;;;;5112644;28;20908;-70
2023/09/02 04:06:23;;;;;;;1.87;1.77;;;24.60;69.40;;;;;;5113751;28;20459;-69
2023/09/02 04:08:51;;;;;;;2.10;1.90;;;24.60;69.40;;;;;;5112171;28;20432;-69
2023/09/02 04:11:19;;;;;;;1.33;1.23;;;24.60;69.40;;;;;;5090012;28;20490;-70
2023/09/02 04:13:47;;;;;;;1.53;1.43;;;24.50;69.40;;;;;;5107767;28;20456;-69
2023/09/02 04:16:17;;;;;;;1.93;1.70;;;24.50;69.40;;;;;;5084264;28;20467;-69
2023/09/02 04:18:46;;;;;;;3.70;1.70;;;24.50;69.40;;;;;;5108538;28;20531;-69
2023/09/02 04:21:14;;;;;;;1.80;1.33;;;24.50;69.30;;;;;;5094763;28;20956;-70
2023/09/02 04:23:44;;;;;;;1.40;1.30;;;24.50;69.30;;;;;;5093763;28;20537;-70
2023/09/02 04:26:15;;;;;;;1.70;1.60;;;24.50;69.30;;;;;;5093732;28;20459;-70
2023/09/02 04:28:43;;;;;;;2.37;2.03;;;24.50;69.30;;;;;;5094245;28;20580;-70
2023/09/02 04:31:17;;;;;;;1.43;1.33;;;24.50;69.30;;;;;;5094373;28;20461;-70
2023/09/02 04:33:45;;;;;;;1.67;1.57;;;24.50;69.30;;;;;;5092673;28;20943;-69
2023/09/02 04:36:16;;;;;;;1.70;1.60;;;24.50;69.20;;;;;;5074794;28;20521;-70
2023/09/02 04:38:45;;;;;;;1.70;1.37;;;24.50;69.20;;;;;;5073514;28;20474;-70
2023/09/02 04:41:13;;;;;;;2.00;1.80;;;24.50;69.30;;;;;;5095919;28;20540;-69
2023/09/02 04:43:42;;;;;;;1.50;1.40;;;24.50;69.30;;;;;;5110310;28;20493;-70
2023/09/02 04:46:12;;;;;;;1.67;1.57;;;24.50;69.30;;;;;;5105911;28;20939;-69
2023/09/02 04:48:46;;;;;;;1.60;1.50;;;24.50;69.30;;;;;;5077146;28;20472;-70
2023/09/02 04:51:17;;;;;;;1.73;1.63;;;24.50;69.30;;;;;;5079225;28;20506;-69
2023/09/02 04:53:46;;;;;;;1.70;1.60;;;24.50;69.30;;;;;;5100966;28;20571;-69
2023/09/02 04:56:14;;;;;;;1.90;1.80;;;24.40;69.20;;;;;;5112759;28;20436;-70
2023/09/02 04:58:43;;;;;;;1.93;1.83;;;24.40;69.30;;;;;;5081883;28;20550;-69
2023/09/02 05:01:15;;;;;;;1.47;1.40;;;24.40;69.30;;;;;;5083447;28;20465;-69
2023/09/02 05:03:49;;;;;;;1.40;1.30;;;24.40;69.30;;;;;;5088594;28;21040;-69
2023/09/02 05:06:17;;;;;;;1.57;1.47;;;24.40;69.20;;;;;;5109808;28;20468;-69
2023/09/02 05:08:47;;;;;;;1.50;1.40;;;24.40;69.20;;;;;;5110515;28;20455;-69
2023/09/02 05:11:19;;;;;;;1.60;1.50;;;24.40;69.20;;;;;;5090106;28;20461;-70
2023/09/02 05:13:48;;;;;;;1.63;1.53;;;24.40;69.20;;;;;;5091652;28;20541;-70
2023/09/02 05:16:16;;;;;;;1.70;1.60;;;24.40;69.20;;;;;;5092650;28;21019;-69
2023/09/02 05:18:45;;;;;;;1.33;1.23;;;24.40;69.20;;;;;;5078755;28;20446;-70
2023/09/02 05:21:14;;;;;;;1.47;1.17;;;24.40;69.20;;;;;;5094826;28;20522;-69
2023/09/02 05:23:43;;;;;;;1.87;1.77;;;24.40;69.20;;;;;;5088139;28;20511;-70
2023/09/02 05:26:13;;;;;;;1.57;1.47;;;24.40;69.10;;;;;;5090658;28;20445;-69
2023/09/02 05:28:41;;;;;;;3.63;1.80;;;24.40;69.10;;;;;;5096992;28;20453;-69
2023/09/02 05:31:09;;;;;;;1.43;1.40;;;24.40;69.10;;;;;;5098302;28;20450;-69
2023/09/02 05:33:37;;;;;;;1.77;1.67;;;24.40;69.10;;;;;;5115869;28;20429;-70
2023/09/02 05:36:06;;;;;;;1.40;1.30;;;24.40;69.10;;;;;;5097801;28;20509;-69
2023/09/02 05:38:35;;;;;;;1.57;1.47;;;24.40;69.10;;;;;;5111405;28;20515;-69
2023/09/02 05:41:03;;;;;;;1.27;1.17;;;24.40;69.10;;;;;;5097825;28;20469;-70
2023/09/02 05:43:32;;;;;;;1.60;1.50;;;24.40;69.10;;;;;;5103682;28;20449;-70
2023/09/02 05:46:01;;;;;;;1.30;1.20;;;24.40;69.10;;;;;;5102193;28;20458;-70
2023/09/02 05:48:30;;;;;;;2.07;1.60;;;24.40;69.10;;;;;;5115723;28;20516;-70
2023/09/02 05:50:58;;;;;;;1.50;1.40;;;24.40;69.10;;;;;;5116113;28;20486;-69
2023/09/02 05:53:26;;;;;;;1.47;1.30;;;24.40;69.10;;;;;;5105029;28;20954;-69
2023/09/02 05:55:56;;;;;;;1.50;1.40;;;24.40;69.00;;;;;;5076968;28;20447;-69
2023/09/02 05:58:26;;;;;;;1.27;1.17;;;24.40;69.10;;;;;;5097106;28;20425;-69
2023/09/02 06:00:54;;;;;;;1.90;1.80;;;24.40;69.00;;;;;;5090231;28;20790;-69
2023/09/02 06:03:22;;;;;;;2.10;1.90;;;24.40;69.00;;;;;;5112548;28;20455;-69
2023/09/02 06:05:50;;;;;;;1.70;1.60;;;24.40;69.00;;;;;;5115318;28;20792;-69
2023/09/02 06:08:19;;;;;;;1.90;1.63;;;24.40;69.00;;;;;;5106031;28;20454;-69
2023/09/02 06:10:57;;;;;;;1.50;1.40;;;24.40;69.00;;;;;;5095530;28;20461;-69
2023/09/02 06:13:26;;;;;;;1.70;1.60;;;24.40;69.00;;;;;;5111124;28;20934;-69
2023/09/02 06:15:59;;;;;;;1.43;1.33;;;24.50;69.00;;;;;;5115296;28;20432;-70
2023/09/02 06:18:27;;;;;;;1.90;1.80;;;24.50;69.00;;;;;;5114748;28;20808;-69
2023/09/02 06:20:56;;;;;;;1.70;1.60;;;24.50;69.00;;;;;;5115335;28;20463;-69
2023/09/02 06:23:25;;;;;;;1.40;1.30;;;24.50;69.00;;;;;;5114456;28;20439;-70
2023/09/02 06:25:58;;;;;;;1.40;1.27;;;24.50;69.00;;;;;;5114656;28;20449;-69
2023/09/02 06:28:27;;;;;;;1.13;1.10;;;24.50;69.10;;;;;;5113902;28;20823;-69
2023/09/02 06:30:55;;;;;;;1.40;1.30;;;24.50;69.00;;;;;;5115059;28;20429;-70
2023/09/02 06:33:25;;;;;;;2.37;2.17;;;24.50;69.10;;;;;;5102032;28;20494;-69
2023/09/02 06:35:53;;;;;;;1.67;1.57;;;24.50;69.10;;;;;;5094317;28;20437;-70
2023/09/02 06:38:21;;;;;;;1.73;1.60;;;24.50;68.90;;;;;;5101235;28;20586;-70
2023/09/02 06:40:49;;;;;;;1.60;1.47;;;24.50;68.90;;;;;;5098644;28;20467;-69
2023/09/02 06:43:19;;;;;;;1.50;1.40;;;24.50;69.00;;;;;;5110851;28;20456;-69
2023/09/02 06:45:48;;;;;;;2.83;1.50;;;24.50;68.90;;;;;;5114581;28;20421;-70
2023/09/02 06:48:16;;;;;;;1.53;1.43;;;24.50;69.00;;;;;;5106978;28;20834;-69
2023/09/02 06:50:47;;;;;;;2.43;1.80;;;24.50;69.00;;;;;;5093937;28;20787;-70
2023/09/02 06:53:15;;;;;;;1.10;1.10;;;24.50;69.00;;;;;;5086176;28;20881;-69
2023/09/02 06:55:44;;;;;;;1.80;1.70;;;24.50;69.00;;;;;;5114871;28;20507;-69
2023/09/02 06:58:12;;;;;;;1.50;1.40;;;24.50;69.00;;;;;;5113715;28;20956;-69
2023/09/02 07:00:42;;;;;;;1.60;1.23;;;24.60;69.00;;;;;;5114311;28;20495;-69
2023/09/02 07:03:11;;;;;;;1.60;1.50;;;24.60;69.00;;;;;;5104539;28;20956;-70
2023/09/02 07:05:40;;;;;;;1.77;1.67;;;24.60;69.00;;;;;;5093647;28;20429;-70
2023/09/02 07:08:08;;;;;;;1.60;1.50;;;24.60;69.00;;;;;;5105087;28;20466;-70
2023/09/02 07:10:37;;;;;;;1.70;1.60;;;24.60;69.00;;;;;;5101256;28;20440;-70
2023/09/02 07:13:05;;;;;;;2.00;1.90;;;24.60;69.00;;;;;;5103839;28;20455;-69
2023/09/02 07:15:34;;;;;;;1.87;1.37;;;24.60;68.90;;;;;;5103723;28;20944;-70
2023/09/02 07:18:05;;;;;;;1.90;1.37;;;24.60;69.00;;;;;;5104534;28;20482;-70
2023/09/02 07:20:37;;;;;;;1.70;1.60;;;24.60;69.00;;;;;;5107346;28;20470;-69
2023/09/02 07:23:05;;;;;;;5.23;1.83;;;24.60;69.00;;;;;;5102764;28;20457;-69
2023/09/02 07:25:34;;;;;;;1.80;1.70;;;24.60;69.00;;;;;;5085140;28;20453;-69
2023/09/02 07:28:02;;;;;;;1.67;1.57;;;24.60;68.90;;;;;;5109097;28;20508;-70
2023/09/02 07:30:30;;;;;;;1.70;1.60;;;24.60;68.90;;;;;;5093419;28;20439;-69
2023/09/02 07:32:58;;;;;;;1.67;1.57;;;24.60;68.90;;;;;;5083462;28;21147;-70
2023/09/02 07:35:28;;;;;;;1.77;1.57;;;24.60;68.90;;;;;;5099346;28;20445;-69
2023/09/02 07:37:57;;;;;;;1.80;1.70;;;24.70;68.90;;;;;;5103413;28;20485;-69
2023/09/02 07:40:25;;;;;;;1.50;1.40;;;24.70;68.90;;;;;;5106901;28;20514;-70
2023/09/02 07:42:53;;;;;;;1.50;1.40;;;24.70;68.90;;;;;;5104192;28;20526;-70
2023/09/02 07:45:21;;;;;;;1.40;1.30;;;24.70;68.90;;;;;;5105783;28;20922;-70
2023/09/02 07:47:50;;;;;;;1.33;1.23;;;24.70;68.90;;;;;;5101506;28;20453;-69
2023/09/02 07:50:18;;;;;;;1.27;1.20;;;24.70;68.90;;;;;;5100758;28;20523;-70
2023/09/02 07:52:49;;;;;;;1.50;1.40;;;24.70;68.90;;;;;;5104442;28;20445;-70
2023/09/02 07:55:17;;;;;;;1.40;1.30;;;24.70;68.90;;;;;;5111068;28;20453;-70
2023/09/02 07:57:46;;;;;;;1.93;1.77;;;24.70;68.90;;;;;;5111394;28;20430;-69
2023/09/02 08:00:14;;;;;;;1.53;1.43;;;24.70;68.90;;;;;;5112162;28;20434;-70
2023/09/02 08:02:42;;;;;;;1.80;1.70;;;24.70;68.90;;;;;;5088758;28;20474;-70
2023/09/02 08:05:11;;;;;;;1.50;1.37;;;24.70;68.90;;;;;;5110275;28;20836;-69
2023/09/02 08:07:39;;;;;;;1.67;1.57;;;24.70;68.90;;;;;;5094482;28;20457;-69
2023/09/02 08:10:10;;;;;;;1.43;1.33;;;24.70;68.90;;;;;;5112243;28;20450;-70
2023/09/02 08:12:39;;;;;;;2.50;1.73;;;24.70;68.90;;;;;;5093163;28;20446;-70
2023/09/02 08:15:08;;;;;;;2.13;1.70;;;24.70;68.90;;;;;;5112698;28;20495;-70
2023/09/02 08:17:38;;;;;;;1.93;1.70;;;24.70;68.90;;;;;;5109082;28;20475;-70
2023/09/02 08:20:11;;;;;;;1.70;1.60;;;24.70;68.90;;;;;;5110395;28;20462;-70
2023/09/02 08:22:42;;;;;;;2.47;2.27;;;24.70;68.90;;;;;;5094810;28;20475;-69
2023/09/02 08:25:12;;;;;;;1.73;1.63;;;24.80;68.90;;;;;;5105938;28;20444;-70
2023/09/02 08:27:44;;;;;;;1.80;1.70;;;24.80;68.80;;;;;;5106365;28;20450;-69
2023/09/02 08:30:13;;;;;;;2.00;1.90;;;24.80;68.80;;;;;;5098265;28;20458;-69
2023/09/02 08:32:42;;;;;;;2.57;1.80;;;24.80;68.80;;;;;;5098433;28;20459;-70
2023/09/02 08:35:12;;;;;;;2.20;2.00;;;24.80;68.80;;;;;;5108438;28;21004;-70
2023/09/02 08:37:40;;;;;;;1.67;1.57;;;24.80;68.80;;;;;;5104962;28;20482;-70
2023/09/02 08:40:09;;;;;;;2.13;1.80;;;24.80;68.80;;;;;;5099044;28;20463;-70
2023/09/02 08:42:41;;;;;;;2.13;2.03;;;24.80;68.80;;;;;;5085098;28;21224;-70
2023/09/02 08:45:11;;;;;;;3.40;1.50;;;24.80;68.80;;;;;;5104665;28;20464;-69
2023/09/02 08:47:40;;;;;;;1.93;1.83;;;24.80;68.80;;;;;;5098519;28;20466;-70
2023/09/02 08:50:10;;;;;;;2.37;1.97;;;24.80;68.90;;;;;;5093487;28;20548;-70
2023/09/02 08:52:40;;;;;;;2.70;2.03;;;24.80;68.90;;;;;;5102647;28;20458;-70
2023/09/02 08:55:10;;;;;;;3.00;2.10;;;24.80;68.90;;;;;;5100355;28;20450;-70
2023/09/02 08:57:41;;;;;;;5.13;2.20;;;24.90;69.30;;;;;;5105283;28;20461;-70
2023/09/02 09:00:10;;;;;;;3.00;2.13;;;24.90;69.70;;;;;;5095210;28;20458;-70
2023/09/02 09:02:39;;;;;;;3.73;2.43;;;24.90;70.10;;;;;;5083858;28;20559;-70
2023/09/02 09:05:09;;;;;;;2.10;1.80;;;24.90;70.20;;;;;;5085732;28;20530;-70
2023/09/02 09:07:39;;;;;;;3.73;2.00;;;24.90;70.20;;;;;;5098856;28;21038;-70
2023/09/02 09:10:11;;;;;;;3.97;2.07;;;24.90;70.20;;;;;;5082873;28;20513;-70
2023/09/02 09:12:41;;;;;;;3.73;2.57;;;25.00;70.20;;;;;;5098411;28;20461;-70
2023/09/02 09:15:12;;;;;;;3.37;2.20;;;25.00;70.10;;;;;;5099250;28;20466;-70
2023/09/02 09:17:41;;;;;;;3.83;2.30;;;25.00;70.10;;;;;;5102806;28;20506;-70
2023/09/02 09:20:10;;;;;;;2.43;1.90;;;25.00;70.10;;;;;;5094380;28;20464;-70
2023/09/02 09:22:40;;;;;;;2.30;2.10;;;25.00;70.00;;;;;;5097418;28;20539;-70
2023/09/02 09:25:09;;;;;;;2.43;2.10;;;25.00;70.10;;;;;;5097025;28;20453;-70
2023/09/02 09:27:38;;;;;;;2.30;1.73;;;25.00;70.10;;;;;;5096791;28;20471;-70
2023/09/02 09:30:27;;;;;;;3.93;2.60;;;25.00;70.10;;;;;;5097561;28;20462;-70
2023/09/02 09:33:00;;;;;;;2.60;2.20;;;25.00;70.10;;;;;;5100679;28;21039;-71
2023/09/02 09:35:30;;;;;;;4.23;2.03;;;25.00;70.10;;;;;;5103570;28;20466;-70
2023/09/02 09:37:59;;;;;;;2.93;2.23;;;25.00;70.10;;;;;;5099304;28;20509;-71
2023/09/02 09:40:31;;;;;;;2.60;2.37;;;25.00;70.20;;;;;;5099562;28;20457;-70
2023/09/02 09:42:59;;;;;;;3.10;2.03;;;25.00;70.10;;;;;;5092199;28;20519;-71
2023/09/02 09:45:30;;;;;;;1.77;1.67;;;25.00;70.10;;;;;;5100939;28;20489;-71
2023/09/02 09:47:59;;;;;;;2.57;2.20;;;25.00;70.10;;;;;;5107267;28;20563;-70
2023/09/02 09:50:29;;;;;;;2.53;2.33;;;25.00;70.10;;;;;;5101193;28;21106;-70
2023/09/02 09:53:04;;;;;;;4.83;2.40;;;25.00;70.10;;;;;;5097527;28;20455;-70
2023/09/02 09:55:34;;;;;;;3.83;1.93;;;25.00;70.10;;;;;;5105449;28;20449;-70
2023/09/02 09:58:03;;;;;;;4.73;2.40;;;25.00;70.10;;;;;;5095055;28;20938;-70
2023/09/02 10:00:32;;;;;;;3.80;2.23;;;25.00;70.10;;;;;;5105009;28;20804;-70
2023/09/02 10:03:01;;;;;;;2.50;2.30;;;25.00;70.10;;;;;;5100614;28;20470;-70
2023/09/02 10:05:31;;;;;;;2.50;1.43;;;25.00;70.10;;;;;;5104069;28;20452;-71
2023/09/02 10:08:01;;;;;;;4.40;2.00;;;25.00;70.10;;;;;;5077351;28;20797;-70
2023/09/02 10:10:31;;;;;;;2.30;2.10;;;25.00;70.10;;;;;;5101331;28;20462;-70
2023/09/02 10:12:59;;;;;;;12.90;2.07;;;25.00;70.10;;;;;;5101346;28;20502;-70
2023/09/02 10:15:29;;;;;;;1.97;1.77;;;25.00;70.10;;;;;;5099678;28;20784;-70
2023/09/02 10:18:00;;;;;;;2.87;1.67;;;25.00;70.00;;;;;;5087306;28;20782;-70
2023/09/02 10:20:30;;;;;;;4.60;2.47;;;25.00;70.00;;;;;;5094454;28;20457;-70
2023/09/02 10:23:05;;;;;;;3.10;2.30;;;25.00;69.90;;;;;;5102180;28;20466;-71
2023/09/02 10:25:41;;;;;;;2.80;2.23;;;25.00;69.90;;;;;;5101118;28;20484;-71
2023/09/02 10:28:14;;;;;;;2.30;2.00;;;25.00;70.00;;;;;;5101601;28;20458;-70
2023/09/02 10:30:47;;;;;;;2.77;1.77;;;25.10;70.00;;;;;;5083566;28;20486;-70
2023/09/02 10:33:28;;;;;;;1.70;1.60;;;25.10;69.70;;;;;;5103741;28;21135;-71
2023/09/02 10:36:00;;;;;;;1.60;1.37;;;25.10;69.30;;;;;;5102275;28;20462;-70
2023/09/02 10:38:32;;;;;;;2.43;1.73;;;25.10;68.90;;;;;;5100653;28;20975;-71
2023/09/02 10:41:08;;;;;;;2.27;1.30;;;25.10;68.50;;;;;;5098653;28;20461;-70
2023/09/02 10:43:38;;;;;;;2.70;1.90;;;25.10;68.00;;;;;;5092271;28;20867;-70
2023/09/02 10:46:08;;;;;;;1.50;1.40;;;25.10;67.70;;;;;;5104174;28;20466;-71
2023/09/02 10:48:40;;;;;;;2.27;1.50;;;25.10;67.60;;;;;;5081577;28;20478;-71
2023/09/02 10:51:10;;;;;;;1.80;1.70;;;25.00;67.80;;;;;;5106869;28;20490;-71
2023/09/02 10:54:06;;;;;;;2.37;1.83;;;25.00;67.90;;;;;;5088554;28;20489;-72
2023/09/02 10:56:36;;;;;;;2.30;2.10;;;25.00;68.10;;;;;;5053768;28;20978;-71
2023/09/02 10:59:05;;;;;;;2.20;1.97;;;24.90;68.30;;;;;;5084131;28;20839;-71
2023/09/02 11:01:44;;;;;;;3.13;2.73;;;25.00;68.30;;;;;;5101164;28;20507;-72
2023/09/02 11:04:16;;;;;;;2.27;2.00;;;25.00;68.20;;;;;;5103322;28;20473;-70
2023/09/02 11:07:22;;;;;;;1.50;1.40;;;25.00;67.90;;;;;;5105400;28;20452;-72
2023/09/02 11:09:52;;;;;;;1.87;1.77;;;25.10;67.90;;;;;;5105263;28;20450;-72
2023/09/02 11:12:20;;;;;;;1.70;1.60;;;25.20;67.90;;;;;;5103825;28;20452;-71
2023/09/02 11:15:14;;;;;;;1.80;1.70;;;25.30;67.70;;;;;;5106276;28;20477;-72
2023/09/02 11:17:42;;;;;;;2.40;2.20;;;25.40;67.70;;;;;;5089632;28;20460;-72
2023/09/02 11:20:13;;;;;;;1.67;1.57;;;25.60;67.20;;;;;;5101210;28;20547;-72
2023/09/02 11:22:55;;;;;;;2.17;1.97;;;25.80;66.90;;;;;;5104869;28;20473;-72
2023/09/02 11:25:29;;;;;;;2.27;2.07;;;26.00;66.20;;;;;;5104858;28;20461;-71
2023/09/02 11:27:59;;;;;;;1.90;1.73;;;26.40;65.70;;;;;;5093199;28;20463;-72
2023/09/02 11:30:30;;;;;;;1.80;1.47;;;26.60;65.20;;;;;;5099222;28;20455;-71
2023/09/02 11:32:59;;;;;;;4.10;2.37;;;26.80;64.80;;;;;;5104494;28;20486;-72
2023/09/02 11:35:32;;;;;;;1.87;1.73;;;26.90;64.40;;;;;;5102487;28;20466;-72
2023/09/02 11:38:02;;;;;;;1.77;1.47;;;27.00;64.10;;;;;;5107812;28;20498;-72
2023/09/02 11:40:30;;;;;;;1.67;1.57;;;27.10;63.90;;;;;;5100557;28;21440;-71
2023/09/02 11:43:00;;;;;;;1.60;1.50;;;27.20;63.80;;;;;;5078567;28;20463;-72
2023/09/02 11:45:31;;;;;;;2.30;1.90;;;27.20;63.80;;;;;;5099853;28;21153;-72
2023/09/02 11:48:00;;;;;;;2.07;1.97;;;27.20;63.70;;;;;;5107517;28;20503;-71
2023/09/02 11:50:30;;;;;;;1.27;1.17;;;27.30;63.60;;;;;;5077494;28;21286;-71
2023/09/02 11:52:59;;;;;;;1.60;1.50;;;27.30;63.60;;;;;;5103137;28;20458;-71
2023/09/02 11:55:28;;;;;;;1.67;1.57;;;27.30;63.70;;;;;;5094412;28;21790;-71
2023/09/02 11:57:57;;;;;;;3.00;1.73;;;27.30;63.70;;;;;;5103894;28;20453;-70
2023/09/02 12:00:27;;;;;;;1.60;1.50;;;27.30;63.80;;;;;;5103990;28;21420;-70
2023/09/02 12:02:58;;;;;;;1.93;1.60;;;27.30;63.80;;;;;;5101136;28;21012;-70
2023/09/02 12:05:28;;;;;;;4.43;1.60;;;27.30;63.90;;;;;;5083891;28;20539;-70
2023/09/02 12:07:58;;;;;;;1.43;1.33;;;27.30;63.90;;;;;;5088090;28;20487;-70
2023/09/02 12:10:27;;;;;;;1.63;1.53;;;27.20;64.00;;;;;;5094837;28;20546;-70
2023/09/02 12:12:57;;;;;;;1.60;1.47;;;27.20;64.00;;;;;;5100600;28;20498;-70
2023/09/02 12:15:26;;;;;;;1.70;1.60;;;27.20;63.90;;;;;;5088153;28;20489;-70
2023/09/02 12:17:55;;;;;;;1.87;1.77;;;27.30;63.90;;;;;;5100983;28;20453;-70
2023/09/02 12:20:25;;;;;;;1.97;1.83;;;27.30;63.90;;;;;;5105102;28;20464;-70
2023/09/02 12:22:55;;;;;;;2.03;1.80;;;27.30;63.90;;;;;;5102444;28;20539;-70
2023/09/02 12:25:26;;;;;;;1.77;1.67;;;27.30;63.80;;;;;;5103693;28;20477;-70
2023/09/02 12:28:10;;;;;;;1.57;1.47;;;27.40;63.70;;;;;;5099361;28;20457;-71
2023/09/02 12:30:41;;;;;;;1.63;1.53;;;27.40;63.60;;;;;;5101695;28;20452;-71
2023/09/02 12:33:09;;;;;;;2.00;1.73;;;27.50;63.50;;;;;;5099077;28;20463;-72
2023/09/02 12:35:37;;;;;;;1.80;1.70;;;27.50;63.40;;;;;;5100610;28;20458;-71
2023/09/02 12:38:08;;;;;;;2.60;1.73;;;27.60;63.40;;;;;;5098529;28;20566;-71
2023/09/02 12:40:38;;;;;;;1.50;1.40;;;27.60;63.40;;;;;;5098538;28;20467;-72
2023/09/02 12:43:06;;;;;;;1.60;1.40;;;27.60;63.30;;;;;;5082658;28;20857;-71
2023/09/02 12:45:40;;;;;;;3.50;1.90;;;27.60;63.30;;;;;;5084145;28;20779;-71
2023/09/02 12:48:09;;;;;;;2.20;1.80;;;27.60;63.40;;;;;;5096180;28;20454;-71
2023/09/02 12:50:37;;;;;;;1.40;1.30;;;27.60;63.40;;;;;;5098551;28;20460;-72
2023/09/02 12:53:10;;;;;;;2.20;2.00;;;27.50;63.40;;;;;;5097034;28;20442;-72
2023/09/02 12:55:42;;;;;;;3.33;1.80;;;27.50;63.70;;;;;;5103087;28;20611;-72
2023/09/02 12:58:10;;;;;;;3.67;2.83;;;27.50;63.70;;;;;;5100076;28;20505;-72
2023/09/02 13:00:38;;;;;;;7.53;2.40;;;27.40;64.20;;;;;;5089958;28;20455;-71
2023/09/02 13:03:07;;;;;;;4.83;2.80;;;27.40;64.40;;;;;;5091166;28;20802;-71